createdAt,value
2018-03-01T00:00:18.506Z,67.80
2018-03-01T00:01:21.801Z,67.70
2018-03-01T00:02:25.097Z,68.10
2018-03-01T00:03:27.657Z,68.10
2018-03-01T00:04:30.945Z,67.90
2018-03-01T00:05:33.477Z,67.90
2018-03-01T00:06:36.047Z,68.00
2018-03-01T00:07:38.570Z,67.80
2018-03-01T00:08:41.104Z,67.80
2018-03-01T00:09:44.392Z,68.10
2018-03-01T00:10:47.674Z,68.40
2018-03-01T00:11:51.016Z,68.10
2018-03-01T00:12:53.543Z,68.10
2018-03-01T00:13:56.286Z,68.00
2018-03-01T00:14:59.611Z,68.00
2018-03-01T00:16:02.137Z,68.00
2018-03-01T00:17:05.465Z,68.30
2018-03-01T00:18:08.003Z,68.30
2018-03-01T00:19:10.533Z,68.30
2018-03-01T00:20:13.073Z,68.20
2018-03-01T00:21:15.597Z,68.20
2018-03-01T00:22:37.014Z,68.10
2018-03-01T00:23:39.582Z,68.50
2018-03-01T00:24:42.116Z,68.90
2018-03-01T00:25:44.638Z,68.30
2018-03-01T00:26:47.341Z,68.40
2018-03-01T00:27:49.883Z,68.30
2018-03-01T00:28:52.453Z,68.60
2018-03-01T00:29:54.982Z,68.50
2018-03-01T00:30:57.553Z,68.90
2018-03-01T00:32:00.097Z,68.80
2018-03-01T00:33:03.398Z,68.70
2018-03-01T00:34:05.926Z,68.60
2018-03-01T00:35:08.455Z,69.30
2018-03-01T00:36:11.037Z,69.10
2018-03-01T00:37:13.567Z,69.00
2018-03-01T00:38:16.145Z,69.10
2018-03-01T00:39:18.678Z,69.20
2018-03-01T00:40:21.973Z,69.30
2018-03-01T00:41:24.542Z,69.30
2018-03-01T00:42:27.070Z,69.00
2018-03-01T00:43:29.605Z,68.80
2018-03-01T00:44:32.140Z,68.80
2018-03-01T00:45:34.674Z,68.80
2018-03-01T00:46:37.239Z,69.20
2018-03-01T00:47:39.760Z,68.80
2018-03-01T00:48:42.292Z,68.90
2018-03-01T00:49:45.589Z,68.90
2018-03-01T00:50:48.114Z,68.80
2018-03-01T00:51:50.683Z,68.70
2018-03-01T00:52:53.253Z,68.50
2018-03-01T00:53:55.788Z,68.50
2018-03-01T00:54:58.318Z,68.60
2018-03-01T00:56:00.850Z,68.70
2018-03-01T00:57:03.390Z,68.90
2018-03-01T00:58:05.975Z,68.70
2018-03-01T00:59:08.507Z,69.00
2018-03-01T01:00:11.041Z,68.90
2018-03-01T01:01:14.333Z,69.00
2018-03-01T01:02:17.634Z,69.30
2018-03-01T01:03:20.209Z,69.30
2018-03-01T01:04:22.736Z,69.40
2018-03-01T01:05:26.036Z,69.10
2018-03-01T01:06:28.603Z,69.10
2018-03-01T01:07:31.137Z,69.10
2018-03-01T01:08:33.720Z,69.20
2018-03-01T01:09:37.009Z,69.00
2018-03-01T01:10:40.296Z,69.00
2018-03-01T01:11:43.613Z,69.00
2018-03-01T01:12:46.143Z,69.00
2018-03-01T01:13:49.440Z,69.40
2018-03-01T01:14:52.007Z,69.40
2018-03-01T01:15:54.533Z,69.60
2018-03-01T01:16:57.049Z,69.00
2018-03-01T01:17:59.690Z,69.10
2018-03-01T01:19:02.989Z,69.50
2018-03-01T01:20:05.570Z,69.30
2018-03-01T01:21:08.097Z,69.40
2018-03-01T01:22:10.637Z,69.50
2018-03-01T01:23:13.161Z,69.50
2018-03-01T01:24:15.700Z,69.10
2018-03-01T01:25:19.029Z,69.50
2018-03-01T01:26:21.568Z,69.40
2018-03-01T01:27:24.861Z,69.30
2018-03-01T01:28:27.380Z,69.20
2018-03-01T01:29:29.914Z,69.20
2018-03-01T01:30:32.491Z,69.40
2018-03-01T01:31:35.021Z,69.10
2018-03-01T01:32:37.563Z,69.30
2018-03-01T01:33:40.093Z,69.60
2018-03-01T01:34:42.630Z,69.50
2018-03-01T01:35:45.186Z,69.30
2018-03-01T01:36:47.716Z,69.50
2018-03-01T01:37:50.254Z,69.70
2018-03-01T01:38:52.808Z,69.20
2018-03-01T01:39:55.333Z,69.20
2018-03-01T01:40:58.639Z,69.30
2018-03-01T01:42:01.306Z,69.20
2018-03-01T01:43:03.847Z,69.20
2018-03-01T01:44:07.142Z,69.40
2018-03-01T01:45:10.437Z,69.30
2018-03-01T01:46:12.960Z,69.30
2018-03-01T01:47:15.514Z,69.40
2018-03-01T01:48:18.045Z,69.30
2018-03-01T01:49:20.570Z,69.50
2018-03-01T01:50:23.093Z,69.70
2018-03-01T01:51:25.650Z,69.60
2018-03-01T01:52:28.173Z,69.60
2018-03-01T01:53:30.697Z,69.70
2018-03-01T01:54:33.249Z,69.60
2018-03-01T01:55:35.773Z,69.60
2018-03-01T01:56:38.339Z,69.70
2018-03-01T01:57:40.929Z,69.90
2018-03-01T01:58:43.449Z,69.80
2018-03-01T01:59:45.979Z,70.00
2018-03-01T02:00:48.785Z,69.50
2018-03-01T02:01:51.305Z,69.30
2018-03-01T02:02:53.865Z,69.10
2018-03-01T02:03:56.399Z,69.10
2018-03-01T02:04:58.924Z,69.20
2018-03-01T02:06:01.451Z,69.30
2018-03-01T02:07:04.120Z,68.90
2018-03-01T02:08:07.446Z,68.90
2018-03-01T02:09:09.974Z,68.90
2018-03-01T02:10:12.514Z,69.00
2018-03-01T02:11:15.038Z,69.20
2018-03-01T02:12:17.564Z,69.20
2018-03-01T02:13:20.889Z,69.50
2018-03-01T02:14:23.447Z,69.50
2018-03-01T02:15:25.964Z,70.10
2018-03-01T02:16:28.494Z,69.80
2018-03-01T02:17:31.022Z,69.80
2018-03-01T02:18:33.557Z,69.70
2018-03-01T02:19:36.118Z,69.80
2018-03-01T02:20:38.666Z,69.80
2018-03-01T02:21:41.194Z,69.70
2018-03-01T02:22:43.726Z,69.80
2018-03-01T02:23:46.288Z,69.70
2018-03-01T02:24:48.813Z,70.00
2018-03-01T02:25:51.343Z,69.90
2018-03-01T02:26:54.630Z,70.00
2018-03-01T02:27:57.961Z,70.20
2018-03-01T02:29:00.493Z,70.10
2018-03-01T02:30:03.056Z,70.00
2018-03-01T02:31:05.577Z,69.70
2018-03-01T02:32:08.104Z,70.00
2018-03-01T02:33:10.656Z,69.90
2018-03-01T02:34:13.186Z,69.80
2018-03-01T02:35:15.709Z,69.90
2018-03-01T02:36:30.028Z,69.90
2018-03-01T02:37:33.326Z,70.20
2018-03-01T02:38:35.898Z,70.20
2018-03-01T02:39:38.427Z,70.30
2018-03-01T02:40:41.721Z,71.00
2018-03-01T02:41:45.010Z,70.60
2018-03-01T02:42:48.325Z,70.60
2018-03-01T02:43:50.875Z,70.60
2018-03-01T02:44:53.398Z,70.40
2018-03-01T02:45:55.938Z,70.20
2018-03-01T02:46:58.468Z,70.10
2018-03-01T02:48:00.991Z,70.20
2018-03-01T02:49:03.563Z,69.90
2018-03-01T02:50:06.085Z,70.20
2018-03-01T02:51:08.613Z,70.10
2018-03-01T02:52:11.912Z,70.00
2018-03-01T02:53:14.455Z,70.00
2018-03-01T02:54:17.039Z,70.00
2018-03-01T02:55:20.341Z,70.10
2018-03-01T02:56:22.868Z,70.10
2018-03-01T02:57:25.410Z,70.30
2018-03-01T02:58:27.946Z,70.40
2018-03-01T02:59:31.298Z,70.40
2018-03-01T03:00:34.601Z,69.90
2018-03-01T03:01:37.142Z,69.90
2018-03-01T03:02:39.661Z,69.60
2018-03-01T03:03:42.188Z,69.90
2018-03-01T03:04:45.522Z,69.70
2018-03-01T03:06:57.673Z,70.00
2018-03-01T03:08:01.036Z,69.80
2018-03-01T03:09:03.554Z,69.80
2018-03-01T03:10:06.122Z,69.80
2018-03-01T03:11:08.658Z,70.30
2018-03-01T03:12:11.946Z,70.30
2018-03-01T03:13:14.470Z,70.30
2018-03-01T03:14:17.001Z,70.40
2018-03-01T03:15:19.566Z,70.40
2018-03-01T03:16:22.093Z,70.20
2018-03-01T03:17:25.399Z,70.70
2018-03-01T03:18:27.932Z,70.10
2018-03-01T03:19:30.459Z,70.20
2018-03-01T03:20:33.023Z,70.10
2018-03-01T03:21:35.552Z,70.10
2018-03-01T03:22:38.858Z,70.10
2018-03-01T03:23:41.387Z,70.10
2018-03-01T03:24:43.919Z,70.10
2018-03-01T03:25:46.488Z,70.40
2018-03-01T03:26:49.038Z,70.60
2018-03-01T03:27:51.592Z,70.20
2018-03-01T03:28:54.158Z,70.20
2018-03-01T03:29:56.694Z,70.10
2018-03-01T03:30:59.988Z,69.80
2018-03-01T03:32:03.347Z,69.70
2018-03-01T03:33:05.875Z,69.70
2018-03-01T03:34:08.442Z,69.90
2018-03-01T03:35:10.974Z,69.70
2018-03-01T03:36:14.267Z,69.60
2018-03-01T03:37:16.793Z,69.60
2018-03-01T03:38:19.321Z,70.10
2018-03-01T03:39:21.905Z,71.10
2018-03-01T03:40:24.450Z,70.30
2018-03-01T03:41:26.973Z,70.00
2018-03-01T03:42:30.268Z,70.30
2018-03-01T03:43:33.575Z,70.10
2018-03-01T03:44:36.137Z,70.00
2018-03-01T03:45:38.694Z,69.90
2018-03-01T03:46:41.230Z,69.60
2018-03-01T03:47:43.753Z,69.70
2018-03-01T03:48:46.310Z,69.70
2018-03-01T03:49:48.869Z,69.90
2018-03-01T03:50:51.445Z,69.70
2018-03-01T03:51:53.970Z,69.80
2018-03-01T03:52:56.495Z,70.00
2018-03-01T03:53:59.022Z,70.30
2018-03-01T03:55:02.306Z,70.80
2018-03-01T03:56:04.881Z,70.80
2018-03-01T03:57:07.421Z,70.50
2018-03-01T03:58:10.708Z,70.90
2018-03-01T03:59:14.030Z,71.20
2018-03-01T04:00:16.564Z,71.10
2018-03-01T04:01:19.854Z,70.60
2018-03-01T04:02:23.144Z,70.70
2018-03-01T04:03:25.686Z,70.60
2018-03-01T04:04:29.018Z,70.60
2018-03-01T04:05:31.534Z,70.60
2018-03-01T04:06:34.070Z,70.60
2018-03-01T04:07:36.626Z,70.40
2018-03-01T04:08:39.166Z,70.80
2018-03-01T04:09:41.724Z,70.70
2018-03-01T04:10:44.257Z,70.90
2018-03-01T04:11:46.800Z,71.00
2018-03-01T04:12:49.326Z,70.70
2018-03-01T04:13:51.862Z,70.70
2018-03-01T04:14:54.424Z,70.70
2018-03-01T04:15:56.958Z,70.80
2018-03-01T04:16:59.522Z,71.00
2018-03-01T04:18:02.042Z,70.90
2018-03-01T04:19:05.324Z,70.90
2018-03-01T04:20:08.621Z,70.80
2018-03-01T04:21:11.154Z,70.70
2018-03-01T04:22:13.717Z,70.70
2018-03-01T04:23:16.257Z,70.90
2018-03-01T04:24:19.612Z,71.10
2018-03-01T04:25:22.145Z,71.10
2018-03-01T04:26:24.676Z,71.30
2018-03-01T04:27:27.209Z,72.00
2018-03-01T04:28:29.734Z,70.80
2018-03-01T04:29:32.295Z,70.80
2018-03-01T04:30:34.816Z,70.90
2018-03-01T04:31:37.340Z,70.90
2018-03-01T04:32:39.872Z,70.70
2018-03-01T04:33:42.413Z,70.90
2018-03-01T04:34:44.957Z,70.90
2018-03-01T04:35:47.474Z,70.60
2018-03-01T04:36:49.992Z,70.60
2018-03-01T04:37:53.392Z,71.00
2018-03-01T04:38:55.918Z,71.00
2018-03-01T04:39:58.447Z,70.90
2018-03-01T04:41:01.769Z,70.90
2018-03-01T04:42:04.321Z,70.90
2018-03-01T04:43:06.846Z,70.80
2018-03-01T04:44:09.377Z,71.00
2018-03-01T04:45:13.247Z,71.00
2018-03-01T04:46:15.809Z,71.00
2018-03-01T04:47:19.097Z,71.00
2018-03-01T04:48:21.624Z,71.00
2018-03-01T04:49:24.153Z,70.80
2018-03-01T04:50:27.455Z,71.20
2018-03-01T04:51:30.789Z,71.50
2018-03-01T04:52:33.324Z,71.40
2018-03-01T04:53:35.845Z,71.20
2018-03-01T04:54:38.370Z,71.10
2018-03-01T04:55:40.936Z,71.30
2018-03-01T04:56:43.502Z,71.50
2018-03-01T04:57:46.026Z,71.50
2018-03-01T04:58:49.322Z,71.40
2018-03-01T04:59:51.848Z,71.40
2018-03-01T05:00:54.367Z,71.30
2018-03-01T05:01:56.937Z,70.90
2018-03-01T05:02:59.470Z,70.70
2018-03-01T05:04:02.819Z,71.50
2018-03-01T05:05:05.352Z,70.80
2018-03-01T05:06:07.892Z,71.00
2018-03-01T05:07:11.180Z,71.00
2018-03-01T05:08:14.477Z,71.00
2018-03-01T05:09:17.034Z,71.00
2018-03-01T05:10:20.330Z,71.60
2018-03-01T05:12:32.621Z,71.80
2018-03-01T05:13:35.923Z,71.70
2018-03-01T05:14:38.445Z,71.60
2018-03-01T05:15:40.970Z,71.40
2018-03-01T05:16:43.534Z,71.50
2018-03-01T05:17:46.052Z,71.40
2018-03-01T05:18:48.585Z,71.60
2018-03-01T05:19:51.112Z,72.10
2018-03-01T05:20:53.678Z,71.60
2018-03-01T05:21:56.247Z,71.50
2018-03-01T05:22:58.775Z,71.40
2018-03-01T05:24:01.311Z,71.20
2018-03-01T05:25:03.839Z,71.20
2018-03-01T05:26:06.361Z,71.00
2018-03-01T05:27:08.933Z,71.40
2018-03-01T05:28:11.473Z,71.70
2018-03-01T05:29:13.993Z,71.40
2018-03-01T05:30:16.524Z,71.30
2018-03-01T05:31:19.087Z,71.50
2018-03-01T05:32:21.626Z,71.40
2018-03-01T05:33:24.147Z,71.60
2018-03-01T05:34:26.674Z,71.20
2018-03-01T05:35:29.203Z,71.00
2018-03-01T05:36:31.724Z,71.30
2018-03-01T05:37:34.289Z,71.40
2018-03-01T05:38:36.812Z,71.50
2018-03-01T05:39:39.341Z,71.90
2018-03-01T05:40:41.861Z,71.80
2018-03-01T05:41:44.381Z,71.90
2018-03-01T05:42:47.702Z,71.60
2018-03-01T05:43:50.225Z,71.60
2018-03-01T05:44:53.537Z,71.70
2018-03-01T05:45:56.062Z,71.60
2018-03-01T05:46:58.616Z,71.20
2018-03-01T05:48:01.176Z,71.30
2018-03-01T05:49:04.478Z,71.30
2018-03-01T05:50:07.042Z,71.10
2018-03-01T05:51:09.570Z,71.30
2018-03-01T05:52:12.864Z,71.90
2018-03-01T05:53:15.449Z,71.80
2018-03-01T05:54:17.968Z,71.60
2018-03-01T05:55:20.498Z,71.60
2018-03-01T05:56:23.026Z,71.80
2018-03-01T05:57:25.555Z,71.90
2018-03-01T05:58:28.135Z,72.10
2018-03-01T05:59:30.666Z,71.70
2018-03-01T06:00:33.188Z,71.70
2018-03-01T06:01:35.710Z,71.70
2018-03-01T06:02:39.051Z,72.00
2018-03-01T06:03:41.601Z,72.00
2018-03-01T06:04:44.140Z,72.20
2018-03-01T06:05:47.488Z,71.90
2018-03-01T06:06:49.998Z,71.90
2018-03-01T06:07:52.521Z,72.00
2018-03-01T06:08:55.088Z,71.80
2018-03-01T06:09:57.614Z,71.90
2018-03-01T06:11:00.233Z,72.00
2018-03-01T06:12:02.766Z,71.90
2018-03-01T06:13:05.300Z,72.10
2018-03-01T06:14:07.858Z,72.40
2018-03-01T06:15:10.423Z,72.30
2018-03-01T06:16:13.717Z,72.20
2018-03-01T06:17:16.245Z,72.30
2018-03-01T06:18:18.838Z,72.30
2018-03-01T06:19:22.129Z,72.00
2018-03-01T06:20:24.654Z,71.90
2018-03-01T06:21:27.191Z,72.00
2018-03-01T06:22:29.721Z,72.00
2018-03-01T06:23:32.297Z,72.10
2018-03-01T06:24:34.829Z,72.20
2018-03-01T06:25:37.370Z,72.60
2018-03-01T06:26:39.898Z,72.20
2018-03-01T06:27:42.427Z,72.20
2018-03-01T06:28:44.994Z,72.10
2018-03-01T06:29:47.521Z,71.70
2018-03-01T06:30:50.051Z,72.20
2018-03-01T06:31:53.344Z,71.70
2018-03-01T06:32:55.873Z,71.70
2018-03-01T06:33:58.438Z,71.80
2018-03-01T06:35:00.983Z,71.90
2018-03-01T06:36:03.511Z,72.10
2018-03-01T06:37:06.058Z,72.10
2018-03-01T06:38:09.387Z,72.10
2018-03-01T06:39:11.910Z,72.10
2018-03-01T06:40:15.210Z,72.40
2018-03-01T06:41:17.741Z,72.30
2018-03-01T06:42:20.309Z,72.30
2018-03-01T06:43:22.847Z,72.20
2018-03-01T06:44:25.375Z,71.70
2018-03-01T06:45:27.917Z,72.00
2018-03-01T06:46:31.210Z,72.20
2018-03-01T06:47:34.533Z,72.40
2018-03-01T06:48:37.061Z,72.40
2018-03-01T06:49:39.596Z,72.70
2018-03-01T06:50:42.130Z,72.60
2018-03-01T06:51:44.695Z,72.90
2018-03-01T06:52:47.259Z,72.90
2018-03-01T06:53:49.786Z,73.10
2018-03-01T06:54:53.078Z,72.70
2018-03-01T06:55:56.406Z,72.70
2018-03-01T06:56:58.933Z,72.70
2018-03-01T06:58:02.223Z,72.30
2018-03-01T06:59:04.772Z,72.30
2018-03-01T07:00:08.099Z,72.50
2018-03-01T07:01:10.664Z,72.50
2018-03-01T07:02:13.236Z,72.60
2018-03-01T07:03:15.769Z,72.50
2018-03-01T07:04:19.244Z,72.80
2018-03-01T07:05:22.559Z,72.50
2018-03-01T07:06:25.094Z,72.50
2018-03-01T07:07:28.433Z,71.30
2018-03-01T07:08:30.970Z,71.20
2018-03-01T07:09:33.515Z,71.10
2018-03-01T07:10:36.846Z,71.40
2018-03-01T07:11:39.373Z,71.40
2018-03-01T07:12:42.679Z,71.00
2018-03-01T07:13:45.198Z,70.90
2018-03-01T07:14:47.721Z,70.60
2018-03-01T07:15:50.283Z,70.30
2018-03-01T07:16:52.865Z,70.30
2018-03-01T07:17:55.466Z,70.00
2018-03-01T07:18:57.998Z,69.30
2018-03-01T07:20:00.526Z,68.00
2018-03-01T07:21:03.062Z,66.80
2018-03-01T07:22:05.585Z,65.60
2018-03-01T07:23:08.145Z,64.10
2018-03-01T07:24:10.670Z,63.00
2018-03-01T07:25:13.959Z,63.00
2018-03-01T07:26:17.249Z,64.20
2018-03-01T07:27:19.785Z,64.20
2018-03-01T07:29:31.302Z,65.60
2018-03-01T07:30:34.600Z,66.80
2018-03-01T07:31:37.125Z,66.80
2018-03-01T07:32:39.693Z,67.00
2018-03-01T07:33:42.226Z,67.60
2018-03-01T07:34:44.765Z,68.20
2018-03-01T07:35:47.298Z,68.90
2018-03-01T07:36:49.823Z,68.80
2018-03-01T07:37:52.397Z,68.60
2018-03-01T07:38:54.930Z,68.60
2018-03-01T07:39:57.465Z,68.80
2018-03-01T07:41:00.791Z,69.60
2018-03-01T07:42:03.352Z,69.00
2018-03-01T07:43:05.927Z,69.00
2018-03-01T07:44:08.453Z,68.90
2018-03-01T07:45:11.741Z,69.40
2018-03-01T07:46:15.034Z,69.50
2018-03-01T07:47:17.593Z,69.50
2018-03-01T07:48:20.926Z,68.90
2018-03-01T07:49:23.450Z,68.90
2018-03-01T07:50:26.746Z,68.70
2018-03-01T07:51:29.322Z,68.70
2018-03-01T07:52:31.847Z,68.80
2018-03-01T07:53:34.410Z,68.80
2018-03-01T07:54:36.928Z,69.50
2018-03-01T07:55:39.465Z,68.60
2018-03-01T07:56:42.753Z,68.20
2018-03-01T07:57:45.318Z,68.10
2018-03-01T07:58:48.614Z,68.10
2018-03-01T07:59:51.140Z,68.10
2018-03-01T08:00:53.704Z,68.50
2018-03-01T08:01:56.234Z,68.20
2018-03-01T08:02:58.782Z,68.20
2018-03-01T08:04:01.333Z,68.20
2018-03-01T08:05:04.626Z,67.90
2018-03-01T08:06:07.183Z,67.90
2018-03-01T08:07:09.753Z,68.30
2018-03-01T08:08:12.289Z,68.60
2018-03-01T08:09:14.845Z,68.40
2018-03-01T08:10:17.383Z,68.10
2018-03-01T08:11:19.920Z,68.70
2018-03-01T08:12:22.457Z,68.90
2018-03-01T08:13:25.007Z,69.00
2018-03-01T08:14:27.565Z,68.80
2018-03-01T08:15:30.100Z,68.50
2018-03-01T08:16:32.627Z,68.20
2018-03-01T08:17:35.149Z,68.00
2018-03-01T08:18:37.677Z,68.50
2018-03-01T08:19:41.005Z,67.20
2018-03-01T08:20:43.525Z,67.20
2018-03-01T08:21:46.818Z,67.10
2018-03-01T08:22:49.349Z,67.00
2018-03-01T08:23:51.881Z,67.80
2018-03-01T08:24:54.446Z,66.90
2018-03-01T08:25:56.969Z,67.00
2018-03-01T08:27:00.256Z,66.60
2018-03-01T08:28:03.557Z,66.30
2018-03-01T08:29:06.142Z,66.30
2018-03-01T08:30:08.665Z,66.50
2018-03-01T08:31:11.954Z,66.00
2018-03-01T08:32:15.245Z,66.40
2018-03-01T08:33:17.780Z,66.40
2018-03-01T08:34:20.393Z,66.30
2018-03-01T08:35:22.949Z,65.90
2018-03-01T08:36:25.473Z,66.30
2018-03-01T08:37:28.059Z,66.50
2018-03-01T08:38:30.559Z,66.30
2018-03-01T08:39:33.078Z,65.70
2018-03-01T08:40:35.637Z,65.60
2018-03-01T08:41:38.168Z,65.70
2018-03-01T08:42:40.701Z,65.70
2018-03-01T08:43:43.986Z,65.70
2018-03-01T08:44:47.279Z,66.00
2018-03-01T08:45:49.831Z,66.00
2018-03-01T08:46:53.129Z,65.80
2018-03-01T08:47:55.655Z,65.70
2018-03-01T08:48:58.232Z,65.70
2018-03-01T08:50:00.752Z,65.40
2018-03-01T08:51:03.303Z,65.40
2018-03-01T08:52:05.850Z,66.20
2018-03-01T08:53:09.146Z,65.40
2018-03-01T08:54:11.689Z,65.30
2018-03-01T08:55:14.232Z,64.60
2018-03-01T08:56:16.784Z,64.50
2018-03-01T08:57:19.369Z,64.50
2018-03-01T08:58:21.903Z,64.70
2018-03-01T08:59:24.431Z,65.60
2018-03-01T09:00:27.719Z,64.80
2018-03-01T09:01:31.050Z,64.80
2018-03-01T09:02:33.564Z,64.80
2018-03-01T09:03:36.847Z,64.40
2018-03-01T09:04:40.126Z,64.60
2018-03-01T09:05:43.413Z,64.50
2018-03-01T09:06:46.733Z,64.10
2018-03-01T09:07:49.246Z,64.00
2018-03-01T09:08:51.757Z,64.00
2018-03-01T09:09:54.283Z,64.50
2018-03-01T09:10:56.853Z,65.50
2018-03-01T09:11:59.407Z,64.60
2018-03-01T09:13:01.938Z,63.90
2018-03-01T09:14:04.474Z,63.90
2018-03-01T09:15:07.025Z,63.60
2018-03-01T09:16:10.313Z,63.20
2018-03-01T09:17:13.631Z,63.30
2018-03-01T09:18:16.153Z,63.30
2018-03-01T09:19:19.437Z,63.30
2018-03-01T09:20:22.005Z,63.20
2018-03-01T09:21:24.545Z,63.60
2018-03-01T09:22:27.892Z,63.90
2018-03-01T09:23:30.449Z,63.90
2018-03-01T09:24:32.994Z,63.80
2018-03-01T09:25:35.513Z,63.40
2018-03-01T09:26:38.039Z,63.30
2018-03-01T09:27:41.368Z,63.80
2018-03-01T09:28:43.903Z,63.80
2018-03-01T09:29:46.440Z,63.20
2018-03-01T09:30:49.720Z,62.60
2018-03-01T09:31:52.252Z,62.50
2018-03-01T09:32:54.821Z,62.80
2018-03-01T09:33:57.341Z,63.10
2018-03-01T09:34:59.862Z,62.60
2018-03-01T09:36:02.386Z,61.70
2018-03-01T09:37:04.909Z,60.40
2018-03-01T09:38:07.470Z,58.10
2018-03-01T09:39:09.997Z,56.00
2018-03-01T09:40:12.519Z,53.80
2018-03-01T09:41:15.811Z,48.50
2018-03-01T09:42:18.332Z,48.30
2018-03-01T09:43:20.914Z,44.80
2018-03-01T09:44:23.438Z,41.80
2018-03-01T09:45:25.965Z,43.20
2018-03-01T09:46:29.271Z,40.00
2018-03-01T09:47:31.810Z,40.00
2018-03-01T09:48:35.150Z,41.40
2018-03-01T09:50:46.591Z,40.90
2018-03-01T09:51:49.896Z,41.80
2018-03-01T09:52:52.422Z,41.70
2018-03-01T09:53:54.987Z,40.40
2018-03-01T09:54:57.514Z,39.90
2018-03-01T09:56:00.041Z,38.90
2018-03-01T09:57:03.327Z,38.40
2018-03-01T09:58:06.614Z,38.20
2018-03-01T09:59:09.931Z,39.30
2018-03-01T10:00:12.446Z,39.10
2018-03-01T10:01:15.864Z,38.70
2018-03-01T10:02:18.405Z,38.00
2018-03-01T10:03:21.753Z,39.00
2018-03-01T10:04:24.293Z,38.90
2018-03-01T10:05:26.821Z,39.90
2018-03-01T10:06:30.159Z,41.40
2018-03-01T10:07:32.723Z,41.30
2018-03-01T10:08:35.253Z,41.20
2018-03-01T10:09:38.537Z,40.70
2018-03-01T10:10:41.069Z,40.70
2018-03-01T10:11:43.597Z,39.30
2018-03-01T10:12:46.146Z,39.30
2018-03-01T10:13:48.672Z,37.30
2018-03-01T10:14:51.193Z,36.20
2018-03-01T10:15:53.755Z,36.70
2018-03-01T10:16:56.301Z,36.50
2018-03-01T10:17:58.839Z,36.50
2018-03-01T10:19:01.361Z,36.50
2018-03-01T10:20:03.877Z,37.80
2018-03-01T10:21:07.197Z,33.30
2018-03-01T10:22:09.750Z,33.20
2018-03-01T10:23:12.270Z,30.80
2018-03-01T10:24:14.790Z,30.00
2018-03-01T10:25:17.342Z,29.40
2018-03-01T10:26:20.625Z,29.90
2018-03-01T10:27:26.968Z,29.80
2018-03-01T10:28:30.298Z,28.60
2018-03-01T10:29:32.818Z,28.50
2018-03-01T10:30:36.106Z,29.60
2018-03-01T10:31:39.443Z,29.60
2018-03-01T10:32:41.945Z,29.50
2018-03-01T10:33:46.318Z,28.60
2018-03-01T10:34:48.874Z,29.60
2018-03-01T10:35:51.394Z,31.40
2018-03-01T10:36:54.710Z,31.10
2018-03-01T10:37:57.230Z,31.10
2018-03-01T10:38:59.754Z,32.00
2018-03-01T10:40:02.278Z,29.90
2018-03-01T10:41:05.557Z,27.70
2018-03-01T10:42:08.870Z,28.90
2018-03-01T10:43:11.425Z,28.90
2018-03-01T10:44:13.956Z,29.40
2018-03-01T10:45:16.512Z,30.40
2018-03-01T10:46:19.030Z,30.00
2018-03-01T10:47:21.558Z,30.00
2018-03-01T10:48:24.109Z,29.70
2018-03-01T10:49:26.622Z,29.70
2018-03-01T10:50:29.170Z,31.00
2018-03-01T10:51:32.454Z,32.90
2018-03-01T10:52:35.772Z,31.90
2018-03-01T10:53:38.293Z,31.80
2018-03-01T10:54:40.817Z,32.30
2018-03-01T10:55:43.333Z,31.70
2018-03-01T10:56:46.673Z,31.80
2018-03-01T10:57:49.202Z,31.20
2018-03-01T10:58:52.490Z,31.00
2018-03-01T10:59:55.007Z,31.00
2018-03-01T11:00:59.561Z,29.50
2018-03-01T11:02:02.899Z,27.90
2018-03-01T11:03:05.462Z,27.80
2018-03-01T11:04:07.988Z,27.80
2018-03-01T11:05:10.519Z,29.10
2018-03-01T11:06:13.818Z,30.20
2018-03-01T11:07:16.411Z,30.20
2018-03-01T11:08:18.958Z,30.50
2018-03-01T11:09:21.500Z,30.30
2018-03-01T11:10:24.025Z,28.70
2018-03-01T11:11:26.609Z,29.10
2018-03-01T11:12:29.178Z,30.90
2018-03-01T11:13:31.720Z,31.30
2018-03-01T11:14:34.242Z,33.20
2018-03-01T11:15:37.528Z,33.70
2018-03-01T11:16:40.822Z,34.50
2018-03-01T11:17:44.147Z,35.20
2018-03-01T11:18:46.674Z,35.10
2018-03-01T11:19:49.966Z,34.80
2018-03-01T11:20:53.249Z,34.70
2018-03-01T11:21:56.532Z,33.60
2018-03-01T11:22:59.863Z,34.00
2018-03-01T11:24:02.410Z,34.00
2018-03-01T11:25:04.933Z,34.70
2018-03-01T11:26:08.218Z,37.60
2018-03-01T11:27:11.504Z,38.10
2018-03-01T11:28:14.791Z,37.30
2018-03-01T11:29:18.113Z,36.80
2018-03-01T11:30:20.639Z,36.60
2018-03-01T11:31:23.939Z,37.40
2018-03-01T11:32:26.476Z,37.40
2018-03-01T11:33:29.091Z,38.30
2018-03-01T11:34:31.617Z,38.70
2018-03-01T11:35:34.173Z,37.70
2018-03-01T11:36:36.705Z,37.30
2018-03-01T11:37:39.232Z,37.00
2018-03-01T11:38:42.561Z,38.80
2018-03-01T11:39:45.079Z,38.90
2018-03-01T11:40:48.362Z,39.20
2018-03-01T11:41:51.655Z,38.80
2018-03-01T11:42:54.182Z,38.80
2018-03-01T11:43:56.745Z,38.80
2018-03-01T11:44:59.269Z,39.60
2018-03-01T11:46:01.818Z,39.80
2018-03-01T11:47:05.101Z,36.80
2018-03-01T11:48:07.625Z,36.70
2018-03-01T11:49:10.240Z,36.20
2018-03-01T11:50:12.729Z,35.50
2018-03-01T11:51:15.262Z,35.40
2018-03-01T11:52:18.550Z,36.50
2018-03-01T11:53:21.117Z,36.50
2018-03-01T11:54:23.637Z,37.10
2018-03-01T11:55:26.164Z,37.00
2018-03-01T11:56:28.680Z,38.00
2018-03-01T11:57:31.204Z,38.60
2018-03-01T11:58:33.762Z,39.40
2018-03-01T11:59:36.292Z,39.30
2018-03-01T12:00:39.587Z,38.60
2018-03-01T12:01:42.871Z,37.30
2018-03-01T12:02:46.193Z,37.60
2018-03-01T12:03:48.710Z,37.60
2018-03-01T12:04:52.034Z,36.70
2018-03-01T12:05:54.544Z,36.70
2018-03-01T12:06:57.070Z,35.50
2018-03-01T12:07:59.593Z,35.40
2018-03-01T12:09:02.906Z,36.40
2018-03-01T12:10:05.441Z,36.90
2018-03-01T12:11:07.952Z,35.50
2018-03-01T12:12:10.484Z,35.00
2018-03-01T12:13:13.769Z,35.10
2018-03-01T12:14:17.089Z,34.60
2018-03-01T12:15:19.606Z,34.70
2018-03-01T12:16:22.117Z,35.70
2018-03-01T12:17:24.672Z,36.60
2018-03-01T12:18:27.191Z,36.10
2018-03-01T12:19:29.713Z,36.70
2018-03-01T12:20:32.251Z,36.20
2018-03-01T12:21:35.539Z,35.10
2018-03-01T12:22:38.094Z,35.10
2018-03-01T12:23:41.380Z,32.90
2018-03-01T12:24:44.675Z,33.50
2018-03-01T12:25:47.230Z,33.50
2018-03-01T12:26:50.513Z,32.60
2018-03-01T12:27:53.801Z,32.00
2018-03-01T12:28:57.087Z,30.30
2018-03-01T12:30:00.375Z,29.30
2018-03-01T12:31:03.693Z,28.20
2018-03-01T12:32:06.234Z,28.20
2018-03-01T12:33:08.751Z,29.30
2018-03-01T12:34:11.274Z,29.40
2018-03-01T12:35:13.806Z,29.60
2018-03-01T12:36:17.202Z,32.80
2018-03-01T12:37:20.503Z,32.10
2018-03-01T12:38:23.025Z,32.00
2018-03-01T12:39:25.588Z,32.00
2018-03-01T12:40:28.097Z,31.90
2018-03-01T12:41:30.646Z,29.60
2018-03-01T12:42:33.925Z,28.80
2018-03-01T12:43:37.217Z,30.20
2018-03-01T12:44:40.524Z,30.80
2018-03-01T12:45:43.041Z,30.80
2018-03-01T12:46:45.593Z,31.30
2018-03-01T12:47:48.114Z,30.80
2018-03-01T12:48:50.637Z,30.70
2018-03-01T12:49:53.167Z,32.50
2018-03-01T12:50:55.694Z,31.80
2018-03-01T12:51:59.005Z,31.10
2018-03-01T12:53:01.529Z,31.00
2018-03-01T12:54:04.049Z,29.70
2018-03-01T12:55:06.558Z,28.30
2018-03-01T12:56:09.087Z,28.30
2018-03-01T12:57:11.650Z,27.20
2018-03-01T12:58:14.179Z,28.80
2018-03-01T12:59:17.466Z,31.20
2018-03-01T13:00:20.770Z,32.00
2018-03-01T13:01:23.290Z,32.10
2018-03-01T13:02:25.854Z,32.20
2018-03-01T13:03:28.365Z,31.70
2018-03-01T13:04:31.466Z,31.20
2018-03-01T13:05:33.991Z,30.00
2018-03-01T13:06:36.534Z,29.20
2018-03-01T13:07:39.878Z,28.80
2018-03-01T13:08:42.436Z,28.40
2018-03-01T13:09:44.957Z,27.20
2018-03-01T13:10:48.243Z,27.10
2018-03-01T13:11:51.536Z,27.40
2018-03-01T13:12:54.825Z,28.60
2018-03-01T13:13:58.154Z,29.40
2018-03-01T13:15:00.691Z,29.40
2018-03-01T13:16:03.224Z,29.30
2018-03-01T13:17:06.512Z,28.50
2018-03-01T13:18:09.831Z,27.70
2018-03-01T13:19:12.397Z,27.10
2018-03-01T13:20:14.921Z,27.30
2018-03-01T13:21:17.498Z,27.40
2018-03-01T13:22:20.795Z,28.40
2018-03-01T13:23:24.088Z,29.60
2018-03-01T13:24:26.662Z,29.50
2018-03-01T13:25:29.186Z,28.90
2018-03-01T13:26:31.703Z,29.00
2018-03-01T13:27:34.227Z,30.50
2018-03-01T13:28:36.914Z,30.00
2018-03-01T13:29:41.921Z,27.00
2018-03-01T13:30:45.990Z,26.50
2018-03-01T13:31:49.438Z,26.50
2018-03-01T13:32:53.733Z,26.10